Bigelow, Minnesota
Current Conditions -  °F | °C
As of 2:55 PM on Sunday 21 Dec 2014 (Local Time) from KOTG Reporting Station
Overcast Overcast  
Wind Chill: 28°   Ceiling: 300
Heat Index: 37°   Visibility: 1.2mi
Dew Point: -11°   Wind: 16mph
Humidity: 12%   Direction: 190°S
Pressure: 29.65"   Gusts: 23mph
Location:  43.51°N, 95.69°W
Report Text: KOTG 212055Z AUTO 19014G20KT 1 1/4SM OVC003 03/M24 A2965 RMK AO1 57024
Loading
Personal Weather Stations






























Interactive Weather Map New forecast layout! Learn more

10-Day Weather Forecast

Advertisements
Track Severe Weather on mobile